Time;durP1;ratioP1;P1;durP2;ratioP2;P2;SDS_P1;SDS_P2;PMS_P1;PMS_P2;Temp;Humidity;BMP_temperature;BMP_pressure;BME280_temperature;BME280_humidity;BME280_pressure;Samples;Min_cycle;Max_cycle;Signal;HPM_P1;HPM_P2
2022/04/03 00:00:06;;;;;;;4.78;4.30;;;;;;;1.16;60.69;100052.41;2842872;81;21044;-83
2022/04/03 00:04:09;;;;;;;7.42;4.15;;;;;;;1.19;60.71;100048.80;2874493;80;21455;-84
2022/04/03 00:08:15;;;;;;;5.30;2.65;;;;;;;1.23;60.69;100054.28;2877859;79;21071;-84
2022/04/03 00:12:17;;;;;;;;;;;;;;;1.27;61.54;100052.77;2880558;81;21007;-84
2022/04/03 00:16:18;;;;;;;13.85;6.78;;;;;;;1.15;61.73;100048.08;2856650;81;20080;-84
2022/04/03 00:20:20;;;;;;;10.25;5.75;;;;;;;0.98;61.46;100052.80;2863924;81;21026;-84
2022/04/03 00:24:21;;;;;;;11.48;7.10;;;;;;;1.02;62.52;100054.83;2881464;80;21021;-84
2022/04/03 00:28:26;;;;;;;21.07;7.58;;;;;;;0.85;62.43;100051.20;2946476;79;21056;-83
2022/04/03 00:32:27;;;;;;;12.43;7.42;;;;;;;0.66;62.18;100055.95;2919065;79;21051;-84
2022/04/03 00:36:28;;;;;;;13.00;6.67;;;;;;;0.53;62.85;100054.34;2837745;81;20977;-83
2022/04/03 00:40:30;;;;;;;11.88;7.83;;;;;;;0.44;63.59;100048.66;2908733;79;21028;-84
2022/04/03 00:44:33;;;;;;;12.45;6.05;;;;;;;0.50;63.82;100054.92;2930193;79;21058;-83
2022/04/03 00:48:36;;;;;;;13.55;5.47;;;;;;;0.53;63.31;100054.79;2946593;79;21657;-84
2022/04/03 00:52:37;;;;;;;9.50;4.97;;;;;;;0.45;62.72;100056.42;2906386;79;21030;-84
2022/04/03 00:56:40;;;;;;;10.08;4.42;;;;;;;0.33;63.00;100065.66;2930781;79;21056;-83
2022/04/03 01:00:42;;;;;;;6.10;4.97;;;;;;;0.31;63.08;100062.27;2933136;79;21016;-84
2022/04/03 01:04:43;;;;;;;8.30;5.10;;;;;;;0.13;64.97;100069.14;2935373;78;20988;-83
2022/04/03 01:08:45;;;;;;;10.78;7.22;;;;;;;0.02;65.36;100068.28;2882616;80;21008;-83
2022/04/03 01:12:46;;;;;;;14.10;6.40;;;;;;;0.04;65.76;100069.51;2850496;80;21452;-84
2022/04/03 01:16:48;;;;;;;9.63;7.50;;;;;;;-0.06;65.66;100068.59;2856040;81;21105;-84
2022/04/03 01:20:52;;;;;;;9.73;6.05;;;;;;;-0.04;66.12;100071.13;2869411;80;21048;-84
2022/04/03 01:24:57;;;;;;;12.25;5.58;;;;;;;0.00;66.31;100075.34;2842500;81;21007;-84
2022/04/03 01:28:59;;;;;;;14.93;5.00;;;;;;;0.08;66.07;100075.86;2899698;79;21020;-85
2022/04/03 01:33:00;;;;;;;8.33;4.78;;;;;;;0.19;65.36;100078.47;2882660;80;21272;-84
2022/04/03 01:37:02;;;;;;;9.98;4.60;;;;;;;0.30;64.29;100074.95;2824101;82;21008;-83
2022/04/03 01:41:04;;;;;;;9.75;5.25;;;;;;;0.33;64.87;100081.36;2831208;81;21021;-85
2022/04/03 01:45:06;;;;;;;10.05;4.05;;;;;;;0.32;65.49;100084.06;2837775;82;21079;-84
2022/04/03 01:49:08;;;;;;;10.93;5.60;;;;;;;0.26;65.93;100083.86;2890653;80;21012;-84
2022/04/03 01:53:10;;;;;;;13.38;4.42;;;;;;;0.16;66.27;100087.76;2838626;81;21028;-84
2022/04/03 01:57:11;;;;;;;7.03;3.95;;;;;;;0.06;66.60;100100.37;2864297;80;21411;-83
2022/04/03 02:01:13;;;;;;;9.18;4.97;;;;;;;-0.14;66.73;100095.50;2847830;81;21045;-84
2022/04/03 02:05:14;;;;;;;8.45;5.20;;;;;;;-0.16;67.43;100105.17;2881520;80;21016;-84
2022/04/03 02:09:16;;;;;;;12.78;4.70;;;;;;;-0.15;67.86;100106.87;2883631;80;21067;-83
2022/04/03 02:13:17;;;;;;;9.75;4.90;;;;;;;-0.12;68.45;100109.83;2949987;79;21502;-84
2022/04/03 02:17:19;;;;;;;9.00;4.45;;;;;;;-0.09;68.79;100112.31;2933639;79;20992;-83
2022/04/03 02:21:20;;;;;;;6.80;4.12;;;;;;;-0.05;69.28;100113.89;2887070;79;20998;-84
2022/04/03 02:25:22;;;;;;;5.28;3.83;;;;;;;-0.08;69.59;100112.70;2841340;82;21007;-83
2022/04/03 02:29:23;;;;;;;7.37;4.33;;;;;;;-0.03;69.90;100114.67;2924805;79;21019;-84
2022/04/03 02:33:25;;;;;;;8.73;5.70;;;;;;;-0.06;70.43;100118.72;2942240;79;20987;-82
2022/04/03 02:37:26;;;;;;;10.75;4.45;;;;;;;-0.04;70.67;100116.89;2878002;79;20996;-83
2022/04/03 02:41:28;;;;;;;11.30;6.20;;;;;;;-0.10;71.08;100116.67;2893800;79;21020;-84
2022/04/03 02:45:29;;;;;;;4.55;3.67;;;;;;;-0.08;71.56;100132.32;2897076;79;21479;-83
2022/04/03 02:49:31;;;;;;;6.33;5.42;;;;;;;-0.15;71.67;100132.58;2921159;79;21028;-84
2022/04/03 02:53:33;;;;;;;6.70;3.52;;;;;;;-0.17;72.08;100131.78;2925997;79;21471;-84
2022/04/03 02:57:34;;;;;;;6.67;3.58;;;;;;;-0.32;72.54;100115.39;2890322;79;21003;-83
2022/04/03 03:01:36;;;;;;;6.80;3.50;;;;;;;-0.19;72.30;100136.23;2868250;79;21519;-84
2022/04/03 03:05:38;;;;;;;6.03;4.22;;;;;;;-0.27;72.90;100144.81;2919526;79;21106;-84
2022/04/03 03:09:39;;;;;;;5.17;4.10;;;;;;;-0.27;72.81;100143.98;2924721;79;21002;-84
2022/04/03 03:13:41;;;;;;;7.15;4.25;;;;;;;-0.32;72.94;100148.91;2940564;79;21023;-84
2022/04/03 03:17:43;;;;;;;6.58;3.62;;;;;;;-0.34;73.33;100144.67;2931841;78;21590;-84
2022/04/03 03:21:45;;;;;;;5.40;3.77;;;;;;;-0.42;73.67;100146.27;2946632;79;21007;-85
2022/04/03 03:25:47;;;;;;;6.45;3.90;;;;;;;-0.45;74.39;100141.16;2908596;79;20969;-83
2022/04/03 03:29:48;;;;;;;5.60;3.75;;;;;;;-0.52;74.51;100145.77;2938219;79;21031;-85
2022/04/03 03:33:50;;;;;;;6.60;4.00;;;;;;;-0.61;74.91;100156.11;2882170;80;21468;-84
2022/04/03 03:37:51;;;;;;;4.33;2.85;;;;;;;-0.66;75.11;100155.44;2874190;80;21051;-84
2022/04/03 03:41:54;;;;;;;3.12;2.83;;;;;;;-0.67;75.69;100157.66;2883247;80;21024;-84
2022/04/03 03:45:56;;;;;;;7.72;3.45;;;;;;;-0.69;75.74;100160.75;2884844;79;21534;-84
2022/04/03 03:49:58;;;;;;;6.62;2.98;;;;;;;-0.59;75.52;100159.95;2884315;80;21526;-84
2022/04/03 03:53:59;;;;;;;11.20;4.53;;;;;;;-0.60;75.33;100162.17;2846190;81;21520;-84
2022/04/03 03:58:01;;;;;;;7.05;3.05;;;;;;;-0.57;75.24;100166.00;2873387;80;21030;-85
2022/04/03 04:02:03;;;;;;;6.85;4.05;;;;;;;-0.55;75.13;100170.71;2933457;79;21004;-85
2022/04/03 04:06:05;;;;;;;6.90;2.95;;;;;;;-0.53;74.96;100175.42;2888092;80;21054;-83
2022/04/03 04:10:07;;;;;;;6.30;2.92;;;;;;;-0.57;74.83;100180.38;2809570;82;21650;-85
2022/04/03 04:14:09;;;;;;;9.70;3.55;;;;;;;-0.77;75.22;100179.78;2852021;81;21156;-84
2022/04/03 04:18:10;;;;;;;11.12;5.62;;;;;;;-0.94;75.46;100187.77;2866990;80;21095;-84
2022/04/03 04:22:12;;;;;;;6.50;3.90;;;;;;;-0.97;75.81;100193.58;2868689;80;21099;-84
2022/04/03 04:26:14;;;;;;;4.62;2.60;;;;;;;-1.11;76.23;100203.17;2854390;81;21060;-84
2022/04/03 04:30:16;;;;;;;6.62;4.35;;;;;;;-1.20;76.51;100207.82;2900119;80;21029;-83
2022/04/03 04:34:17;;;;;;;5.05;3.12;;;;;;;-1.18;76.24;100207.75;2863622;81;21001;-84
2022/04/03 04:38:19;;;;;;;11.03;4.17;;;;;;;-1.19;76.41;100212.14;2868603;81;21079;-84
2022/04/03 04:42:21;;;;;;;6.72;5.40;;;;;;;-1.15;76.31;100215.50;2851171;81;21409;-84
2022/04/03 04:46:22;;;;;;;7.22;5.03;;;;;;;-1.10;76.27;100214.02;2865460;81;21528;-84
2022/04/03 04:50:23;;;;;;;7.65;5.87;;;;;;;-1.01;76.18;100228.08;2893988;80;21109;-84
2022/04/03 04:54:26;;;;;;;11.03;6.55;;;;;;;-1.05;76.20;100232.54;2881308;79;21495;-84
2022/04/03 04:58:28;;;;;;;17.35;6.78;;;;;;;-1.15;76.75;100236.39;2904291;79;21024;-85
2022/04/03 05:02:29;;;;;;;10.85;5.80;;;;;;;-1.20;77.17;100233.06;2863002;79;21058;-83
2022/04/03 05:06:34;;;;;;;11.60;6.17;;;;;;;-1.22;77.62;100238.78;2890818;79;20984;-84
2022/04/03 05:10:36;;;;;;;15.80;6.12;;;;;;;-1.14;77.43;100236.79;2942358;78;21513;-85
2022/04/03 05:14:38;;;;;;;11.40;5.87;;;;;;;-1.14;77.81;100238.09;2922200;79;21059;-84
2022/04/03 05:18:40;;;;;;;5.05;3.62;;;;;;;-1.00;77.49;100241.53;2904092;80;21674;-85
2022/04/03 05:22:42;;;;;;;13.98;7.62;;;;;;;-0.90;77.23;100250.73;2837704;82;21139;-84
2022/04/03 05:26:44;;;;;;;15.10;9.93;;;;;;;-0.79;76.90;100258.19;2840933;81;21092;-84
2022/04/03 05:30:46;;;;;;;14.18;6.28;;;;;;;-0.46;76.18;100268.83;2839303;82;21193;-84
2022/04/03 05:34:47;;;;;;;17.67;6.90;;;;;;;-0.20;75.11;100263.08;2893894;80;21088;-83
2022/04/03 05:38:49;;;;;;;11.15;7.10;;;;;;;0.08;74.42;100273.34;2864244;80;21080;-84
2022/04/03 05:42:51;;;;;;;15.40;8.83;;;;;;;0.21;73.81;100272.89;2862392;79;21078;-84
2022/04/03 05:46:52;;;;;;;10.55;5.70;;;;;;;0.48;72.92;100283.16;2916113;79;20988;-84
2022/04/03 05:50:54;;;;;;;10.08;6.20;;;;;;;0.41;72.29;100282.55;2881516;80;21623;-83
2022/04/03 05:54:55;;;;;;;13.35;6.78;;;;;;;0.65;72.02;100285.95;2843259;80;21109;-84
2022/04/03 05:58:57;;;;;;;9.35;4.42;;;;;;;0.91;71.20;100294.50;2857180;80;21142;-84
2022/04/03 06:03:01;;;;;;;6.20;3.75;;;;;;;0.94;70.43;100295.67;2899382;80;21026;-84
2022/04/03 06:07:03;;;;;;;6.37;4.33;;;;;;;0.76;71.13;100299.92;2859290;81;21091;-84
2022/04/03 06:11:04;;;;;;;4.92;3.92;;;;;;;0.65;71.01;100300.36;2824820;81;21633;-84
2022/04/03 06:15:07;;;;;;;5.20;3.45;;;;;;;0.72;71.61;100300.97;2878964;80;21031;-84
2022/04/03 06:19:09;;;;;;;5.75;3.67;;;;;;;0.73;70.64;100296.12;2839006;82;21458;-85
2022/04/03 06:23:12;;;;;;;5.12;3.47;;;;;;;0.88;70.96;100305.11;2818705;82;21132;-84
2022/04/03 06:27:14;;;;;;;6.10;3.70;;;;;;;0.71;70.11;100300.58;2838928;81;21041;-84
2022/04/03 06:31:15;;;;;;;7.25;4.62;;;;;;;0.78;70.49;100305.08;2845374;80;21615;-83
2022/04/03 06:35:17;;;;;;;6.92;3.47;;;;;;;1.14;70.12;100311.02;2806617;82;21113;-84
2022/04/03 06:39:18;;;;;;;6.87;3.67;;;;;;;1.52;68.62;100310.31;2852979;80;21048;-84
2022/04/03 06:43:22;;;;;;;5.83;2.87;;;;;;;1.78;66.80;100314.85;2920111;79;21003;-84
2022/04/03 06:47:23;;;;;;;4.97;2.75;;;;;;;1.79;65.72;100311.30;2868696;80;21059;-86
2022/04/03 06:51:25;;;;;;;4.65;2.62;;;;;;;1.67;64.89;100321.89;2857115;80;21020;-86
2022/04/03 06:55:26;;;;;;;3.72;2.90;;;;;;;1.78;66.54;100320.09;2865206;80;21031;-85
2022/04/03 06:59:29;;;;;;;5.00;3.47;;;;;;;2.14;65.97;100315.41;2874764;80;21500;-84
2022/04/03 07:03:32;;;;;;;12.90;3.87;;;;;;;2.28;64.47;100321.33;2876864;81;21032;-85
2022/04/03 07:07:34;;;;;;;8.08;3.52;;;;;;;2.50;63.88;100321.63;2872283;81;21575;-83
2022/04/03 07:11:35;;;;;;;5.50;3.05;;;;;;;2.66;63.55;100321.28;2859932;80;20984;-86
2022/04/03 07:15:37;;;;;;;8.90;3.95;;;;;;;2.89;62.38;100316.67;2889060;80;21012;-86
2022/04/03 07:19:39;;;;;;;6.85;2.35;;;;;;;3.32;61.21;100322.88;2894717;80;20965;-87
2022/04/03 07:23:40;;;;;;;7.47;3.45;;;;;;;3.53;59.35;100322.22;2873523;80;21003;-86
2022/04/03 07:27:42;;;;;;;3.22;2.20;;;;;;;3.75;59.47;100323.76;2888822;79;21668;-86
2022/04/03 07:32:20;;;;;;;4.42;2.98;;;;;;;4.17;56.45;100328.58;2910330;79;21610;-88
2022/04/03 07:36:22;;;;;;;5.67;2.55;;;;;;;4.39;55.72;100332.19;2866391;80;21075;-88
2022/04/03 07:40:23;;;;;;;4.12;2.70;;;;;;;4.58;54.60;100347.34;2885759;79;21062;-87
2022/04/03 07:44:25;;;;;;;4.83;2.92;;;;;;;4.75;55.06;100343.41;2869599;80;21055;-85
2022/04/03 07:48:27;;;;;;;4.87;2.95;;;;;;;4.53;54.60;100338.03;2874298;80;21019;-84
2022/04/03 07:52:28;;;;;;;3.20;2.27;;;;;;;4.52;54.95;100346.83;2842197;80;21114;-85
2022/04/03 07:56:30;;;;;;;4.70;4.03;;;;;;;4.68;54.80;100355.59;2853825;81;21143;-84
2022/04/03 08:00:33;;;;;;;4.35;1.82;;;;;;;4.83;53.82;100355.67;2806721;82;21547;-85
2022/04/03 08:04:34;;;;;;;2.33;2.12;;;;;;;4.55;51.57;100369.08;2850003;80;21077;-85
2022/04/03 08:08:35;;;;;;;3.35;1.65;;;;;;;4.36;51.61;100360.88;2859200;80;21030;-84
2022/04/03 08:12:38;;;;;;;8.28;2.35;;;;;;;4.13;50.04;100368.25;2868359;80;21012;-85
2022/04/03 08:16:40;;;;;;;3.35;2.75;;;;;;;4.18;50.25;100361.88;2859184;81;21063;-85
2022/04/03 08:20:43;;;;;;;3.33;1.85;;;;;;;4.10;51.05;100371.02;2864566;80;21625;-85
2022/04/03 08:24:45;;;;;;;2.37;2.02;;;;;;;4.12;51.10;100370.95;2876845;80;21031;-84
2022/04/03 08:28:46;;;;;;;1.72;1.50;;;;;;;4.08;51.57;100364.98;2843520;81;21046;-85
2022/04/03 08:32:48;;;;;;;3.42;1.47;;;;;;;4.17;51.82;100369.39;2887257;80;20987;-84
2022/04/03 08:36:50;;;;;;;1.92;1.37;;;;;;;4.19;51.82;100376.25;2825493;81;21106;-86
2022/04/03 08:40:52;;;;;;;1.15;1.10;;;;;;;4.08;51.35;100379.47;2892467;79;21526;-85
2022/04/03 08:44:53;;;;;;;3.08;1.67;;;;;;;3.98;49.75;100375.63;2881598;80;21566;-87
2022/04/03 08:53:44;;;;;;;4.75;1.75;;;;;;;4.14;48.39;100379.16;2825700;80;21083;-85
2022/04/03 08:57:46;;;;;;;3.20;1.83;;;;;;;4.35;52.45;100392.55;2864103;80;21071;-85
2022/04/03 09:15:44;;;;;;;1.80;1.00;;;;;;;4.61;50.66;100383.23;2779552;82;21538;-84
2022/04/03 09:19:46;;;;;;;3.77;2.30;;;;;;;4.53;50.08;100390.23;2741180;82;21036;-85
2022/04/03 09:24:07;;;;;;;1.57;1.45;;;;;;;4.49;50.67;100390.48;2800042;82;21543;-85
2022/04/03 09:28:14;;;;;;;3.98;1.45;;;;;;;4.49;51.96;100389.16;2776500;81;21543;-85
2022/04/03 09:32:20;;;;;;;1.70;1.20;;;;;;;4.85;49.17;100390.69;2777496;82;21118;-85
2022/04/03 09:36:21;;;;;;;1.80;1.57;;;;;;;4.96;48.06;100369.86;2706505;84;21039;-86
2022/04/03 09:40:31;;;;;;;2.55;1.77;;;;;;;5.41;49.56;100391.48;2763523;82;21023;-86
2022/04/03 09:44:36;;;;;;;2.58;2.37;;;;;;;5.45;46.77;100388.20;2766632;83;21137;-84
2022/04/03 09:48:43;;;;;;;2.10;1.50;;;;;;;5.25;47.24;100391.05;2783860;81;21003;-85
2022/04/03 09:52:51;;;;;;;;;;;;;;;5.14;48.52;100381.61;2742104;84;21040;-85
2022/04/03 09:56:51;;;;;;;2.92;2.30;;;;;;;5.03;48.40;100375.63;2746827;83;20104;-84
2022/04/03 10:00:53;;;;;;;1.00;0.72;;;;;;;5.07;47.05;100375.83;2728852;83;21035;-84
2022/04/03 10:04:55;;;;;;;2.10;1.80;;;;;;;5.19;47.75;100376.91;2761840;82;21050;-85
2022/04/03 10:08:58;;;;;;;5.97;1.32;;;;;;;5.09;47.69;100377.91;2796431;82;21027;-90
2022/04/03 10:13:04;;;;;;;4.72;2.30;;;;;;;5.20;48.18;100387.84;2834145;81;21060;-84
2022/04/03 10:17:06;;;;;;;4.03;1.85;;;;;;;5.15;48.37;100379.34;2786292;82;21019;-88
2022/04/03 10:21:12;;;;;;;3.33;2.20;;;;;;;5.15;49.48;100390.73;2769801;83;21626;-84
2022/04/03 10:25:21;;;;;;;2.65;1.35;;;;;;;5.12;49.00;100389.59;2783375;81;21052;-84
2022/04/03 10:29:24;;;;;;;1.70;1.30;;;;;;;5.18;48.13;100386.22;2761673;83;21645;-84
2022/04/03 10:33:34;;;;;;;1.45;1.25;;;;;;;5.34;49.89;100390.98;2844282;81;21035;-84
2022/04/03 10:37:42;;;;;;;5.75;2.05;;;;;;;5.57;49.58;100375.13;2823563;82;21005;-88
2022/04/03 10:41:44;;;;;;;1.95;1.60;;;;;;;5.73;46.92;100368.94;2838816;81;21008;-84
2022/04/03 10:45:47;;;;;;;2.70;1.85;;;;;;;5.64;45.86;100361.10;2840331;82;21118;-83
2022/04/03 10:50:00;;;;;;;2.52;1.98;;;;;;;5.76;46.59;100362.15;2773316;82;21622;-86
2022/04/03 10:54:02;;;;;;;4.10;1.30;;;;;;;5.97;45.04;100363.10;2803205;82;21088;-86
2022/04/03 10:58:06;;;;;;;3.08;1.40;;;;;;;6.00;45.15;100362.91;2800965;83;21416;-88
2022/04/03 11:02:14;;;;;;;2.50;2.30;;;;;;;6.00;45.42;100362.91;2792081;82;21004;-87
2022/04/03 11:06:23;;;;;;;4.97;2.30;;;;;;;5.75;44.86;100357.81;2838280;82;21056;-88
2022/04/03 11:10:55;;;;;;;2.55;2.33;;;;;;;5.53;46.37;100362.20;2833514;81;22424;-84
2022/04/03 11:14:57;;;;;;;4.20;2.00;;;;;;;5.44;45.95;100364.91;2808255;82;21016;-84
2022/04/03 11:19:05;;;;;;;1.77;1.40;;;;;;;5.19;45.39;100366.36;2834348;81;21007;-85
2022/04/03 11:23:14;;;;;;;1.82;1.25;;;;;;;5.20;46.98;100367.19;2781800;83;20996;-84
2022/04/03 11:27:15;;;;;;;1.22;1.12;;;;;;;5.20;47.73;100368.52;2765753;83;21084;-85
2022/04/03 11:31:17;;;;;;;2.33;2.15;;;;;;;5.37;44.99;100356.99;2738395;84;21051;-85
2022/04/03 11:35:33;;;;;;;1.60;1.32;;;;;;;5.71;44.66;100364.23;2803965;81;21584;-85
2022/04/03 11:39:38;;;;;;;1.80;1.50;;;;;;;5.79;43.49;100351.85;2797159;82;21098;-86
2022/04/03 11:43:40;;;;;;;2.22;1.47;;;;;;;5.66;42.79;100355.71;2771606;83;21031;-85
2022/04/03 11:47:42;;;;;;;3.70;1.62;;;;;;;5.56;45.01;100351.45;2825351;82;20999;-84
2022/04/03 11:51:45;;;;;;;4.75;2.05;;;;;;;5.71;44.16;100347.06;2824305;83;21055;-85
2022/04/03 11:55:47;;;;;;;6.53;1.90;;;;;;;5.71;45.64;100357.62;2842098;81;21079;-84
2022/04/03 11:59:52;;;;;;;1.90;1.40;;;;;;;5.72;47.12;100351.41;2844184;82;21115;-86
2022/04/03 12:04:06;;;;;;;1.35;1.12;;;;;;;5.85;48.02;100347.05;2856303;81;21515;-86
2022/04/03 12:08:07;;;;;;;4.12;1.92;;;;;;;5.88;46.34;100349.13;2819345;82;20992;-88
2022/04/03 12:12:10;;;;;;;2.42;1.47;;;;;;;6.04;46.80;100345.95;2856876;81;21034;-87
2022/04/03 12:16:22;;;;;;;2.10;1.50;;;;;;;6.00;45.82;100342.64;2824330;82;21024;-87
2022/04/03 12:20:24;;;;;;;4.37;2.47;;;;;;;5.92;44.11;100337.45;2838456;81;21586;-84
2022/04/03 12:24:28;;;;;;;5.08;2.45;;;;;;;6.03;46.25;100335.50;2833660;81;21095;-89
2022/04/03 12:28:29;;;;;;;3.72;1.67;;;;;;;6.06;46.22;100330.03;2804273;83;21165;-87
2022/04/03 12:32:35;;;;;;;2.52;1.75;;;;;;;6.13;45.50;100329.55;2834877;82;21134;-84
2022/04/03 12:36:48;;;;;;;2.58;2.05;;;;;;;6.30;45.93;100309.16;2789280;82;21024;-82
2022/04/03 12:40:54;;;;;;;2.52;2.02;;;;;;;6.30;45.93;100309.16;2823910;82;21079;-82
2022/04/03 12:44:58;;;;;;;2.40;2.10;;;;;;;6.26;45.69;100319.05;2809413;82;21018;-82
2022/04/03 12:48:59;;;;;;;1.57;1.17;;;;;;;5.95;44.76;100320.10;2754388;83;21009;-82
2022/04/03 12:53:03;;;;;;;1.80;1.57;;;;;;;5.58;46.34;100317.91;2762248;84;21032;-82
2022/04/03 13:01:24;;;;;;;;;;;;;;;5.68;46.43;100312.91;2829445;80;21082;-82
2022/04/03 13:05:31;;;;;;;3.45;1.67;;;;;;;5.72;48.27;100315.77;2834510;80;20436;-87
2022/04/03 13:09:33;;;;;;;3.33;1.98;;;;;;;5.85;49.81;100315.37;2830292;80;21684;-83
2022/04/03 13:13:37;;;;;;;2.60;2.02;;;;;;;5.88;47.50;100302.92;2851120;79;21022;-82
2022/04/03 13:17:39;;;;;;;5.28;2.10;;;;;;;6.09;48.71;100293.72;2871044;80;21054;-86
2022/04/03 13:21:41;;;;;;;3.47;1.70;;;;;;;6.09;49.49;100288.44;2870918;81;20967;-84
2022/04/03 13:25:43;;;;;;;2.67;2.08;;;;;;;6.03;47.62;100286.16;2882556;81;20987;-81
2022/04/03 13:29:44;;;;;;;2.27;1.75;;;;;;;6.23;49.03;100283.59;2871019;80;21006;-83
2022/04/03 13:33:46;;;;;;;3.83;2.00;;;;;;;6.45;47.44;100283.98;2874606;81;21071;-82
2022/04/03 13:37:48;;;;;;;3.62;2.42;;;;;;;6.54;47.87;100280.77;2875314;80;21508;-83
2022/04/03 13:41:55;;;;;;;4.37;2.42;;;;;;;6.43;46.79;100277.50;2889816;80;21151;-81
2022/04/03 13:45:56;;;;;;;4.00;1.80;;;;;;;6.11;48.51;100273.34;2864548;80;21130;-83
2022/04/03 13:49:58;;;;;;;4.10;2.30;;;;;;;6.24;48.61;100276.50;2845102;81;21118;-83
2022/04/03 13:54:01;;;;;;;2.58;2.10;;;;;;;6.18;50.69;100277.73;2840837;80;21607;-82
2022/04/03 13:58:02;;;;;;;6.05;3.62;;;;;;;6.08;52.02;100276.15;2826523;82;21587;-82
2022/04/03 14:02:04;;;;;;;2.52;1.92;;;;;;;5.77;50.46;100273.23;2827919;82;21567;-82
2022/04/03 14:06:06;;;;;;;3.47;2.22;;;;;;;5.62;51.96;100281.63;2832912;82;21000;-82
2022/04/03 14:10:08;;;;;;;5.22;2.60;;;;;;;5.52;51.09;100278.70;2837469;80;21066;-82
2022/04/03 14:14:10;;;;;;;4.35;3.15;;;;;;;5.34;51.95;100276.72;2846800;81;21496;-82
2022/04/03 14:18:11;;;;;;;3.83;2.55;;;;;;;4.91;54.00;100266.44;2831405;81;21035;-83
2022/04/03 14:22:13;;;;;;;4.12;2.08;;;;;;;4.71;55.39;100269.77;2839786;81;21583;-82
2022/04/03 14:26:14;;;;;;;4.08;3.60;;;;;;;4.72;55.10;100282.48;2856134;81;20996;-82
2022/04/03 14:30:16;;;;;;;3.60;2.40;;;;;;;4.82;53.61;100275.77;2854778;81;21036;-82
2022/04/03 14:34:17;;;;;;;16.90;2.85;;;;;;;4.91;53.78;100269.56;2883747;79;21048;-82
2022/04/03 14:38:19;;;;;;;6.95;3.10;;;;;;;5.04;54.25;100273.64;2906576;79;21034;-82
2022/04/03 14:42:20;;;;;;;2.85;1.70;;;;;;;5.13;53.34;100271.80;2889985;78;20988;-83
2022/04/03 14:46:22;;;;;;;5.33;3.67;;;;;;;5.33;53.40;100267.11;2886369;78;21035;-82
2022/04/03 14:50:23;;;;;;;15.53;8.03;;;;;;;5.64;54.41;100271.83;2886784;79;21105;-82
2022/04/03 14:54:25;;;;;;;3.40;2.30;;;;;;;5.97;51.13;100260.12;2914564;78;21089;-82
2022/04/03 14:58:26;;;;;;;9.75;6.47;;;;;;;6.17;49.81;100259.36;2907200;79;21373;-82
2022/04/03 15:02:28;;;;;;;11.20;5.40;;;;;;;6.17;49.01;100268.61;2858469;80;21038;-82
2022/04/03 15:06:29;;;;;;;3.15;2.40;;;;;;;6.00;49.79;100270.48;2862228;80;21009;-82
2022/04/03 15:10:31;;;;;;;7.95;4.55;;;;;;;5.85;48.80;100271.81;2832524;80;21598;-82
2022/04/03 15:14:32;;;;;;;4.62;2.60;;;;;;;5.74;49.69;100270.33;2810069;82;21021;-82
2022/04/03 15:18:36;;;;;;;3.55;2.50;;;;;;;5.64;48.74;100267.41;2843531;80;21000;-82
2022/04/03 15:22:37;;;;;;;3.90;1.80;;;;;;;5.80;50.42;100263.34;2842311;80;21027;-82
2022/04/03 15:26:39;;;;;;;9.08;4.85;;;;;;;5.80;49.45;100269.94;2845934;81;21075;-82
2022/04/03 15:30:40;;;;;;;3.70;3.15;;;;;;;5.83;48.95;100267.59;2862582;80;21000;-82
2022/04/03 15:34:42;;;;;;;6.35;5.28;;;;;;;5.71;49.17;100268.72;2825336;81;21043;-82
2022/04/03 15:38:44;;;;;;;3.27;1.98;;;;;;;5.61;46.55;100269.38;2834952;81;21052;-82
2022/04/03 15:42:45;;;;;;;2.65;2.45;;;;;;;5.62;48.02;100263.16;2861606;81;20983;-82
2022/04/03 15:46:47;;;;;;;2.90;2.02;;;;;;;5.55;49.04;100258.27;2857704;80;21043;-82
2022/04/03 15:50:48;;;;;;;5.00;3.33;;;;;;;5.57;49.46;100251.56;2856723;80;21770;-82
2022/04/03 15:54:50;;;;;;;4.87;2.55;;;;;;;5.83;49.92;100248.62;2887580;79;21495;-82
2022/04/03 15:58:51;;;;;;;5.33;2.77;;;;;;;6.00;48.83;100250.22;2840360;81;21036;-82
2022/04/03 16:02:53;;;;;;;3.00;2.80;;;;;;;5.97;51.15;100254.34;2790764;81;21047;-82
2022/04/03 16:06:54;;;;;;;6.00;3.40;;;;;;;5.93;48.98;100250.22;2826362;81;21630;-82
2022/04/03 16:10:56;;;;;;;6.03;3.20;;;;;;;5.88;50.56;100255.41;2821983;81;21035;-82
2022/04/03 16:14:58;;;;;;;5.12;2.37;;;;;;;5.83;50.45;100249.94;2830277;82;21142;-82
2022/04/03 16:19:04;;;;;;;2.50;2.27;;;;;;;5.53;49.34;100259.30;2839065;80;21000;-82
2022/04/03 16:23:03;;;;;;;4.75;3.00;;;;;;;5.40;49.98;100253.92;2875498;81;21051;-82
2022/04/03 16:27:05;;;;;;;11.53;4.17;;;;;;;5.37;51.22;100258.91;2883363;80;21069;-82
2022/04/03 16:31:06;;;;;;;5.97;3.17;;;;;;;5.37;50.25;100256.75;2874833;80;21166;-82
2022/04/03 16:35:10;;;;;;;5.53;3.25;;;;;;;5.33;50.35;100248.65;2870749;81;21094;-82
2022/04/03 16:39:11;;;;;;;5.28;3.62;;;;;;;5.37;53.13;100255.43;2902219;79;21491;-82
2022/04/03 16:43:14;;;;;;;4.33;2.90;;;;;;;5.23;51.19;100254.46;2887011;80;21395;-82
2022/04/03 16:47:15;;;;;;;4.70;3.55;;;;;;;5.11;50.88;100256.05;2849568;80;21024;-82
2022/04/03 16:51:17;;;;;;;4.22;2.98;;;;;;;4.97;53.06;100255.55;2849650;80;21064;-82
2022/04/03 16:55:20;;;;;;;3.58;3.25;;;;;;;4.77;52.56;100253.24;2861300;80;21043;-82
2022/04/03 16:59:22;;;;;;;7.90;3.80;;;;;;;4.63;50.90;100252.73;2861302;80;21106;-82
2022/04/03 17:03:23;;;;;;;6.42;3.62;;;;;;;4.49;53.15;100257.45;2876314;80;21024;-82
2022/04/03 17:07:26;;;;;;;15.13;3.50;;;;;;;4.32;52.96;100261.88;2853570;80;21017;-88
2022/04/03 17:11:28;;;;;;;6.55;3.83;;;;;;;4.19;51.78;100262.20;2838070;80;20977;-83
2022/04/03 17:15:30;;;;;;;10.10;3.98;;;;;;;4.16;52.00;100263.70;2862283;80;21044;-82
2022/04/03 17:19:32;;;;;;;6.92;4.35;;;;;;;4.03;53.15;100268.31;2852436;80;21029;-83
2022/04/03 17:23:34;;;;;;;10.58;4.03;;;;;;;4.05;52.78;100269.07;2832488;81;21079;-82
2022/04/03 17:27:36;;;;;;;5.85;4.30;;;;;;;4.06;53.19;100269.45;2891807;79;21011;-82
2022/04/03 17:31:40;;;;;;;6.72;4.45;;;;;;;4.11;52.78;100275.30;2859337;79;21008;-82
2022/04/03 17:35:41;;;;;;;5.08;4.12;;;;;;;4.21;51.28;100277.45;2813155;81;21035;-82
2022/04/03 17:39:42;;;;;;;5.37;3.35;;;;;;;4.17;51.88;100273.29;2796419;82;21047;-82
2022/04/03 17:43:45;;;;;;;4.78;3.50;;;;;;;4.11;54.09;100276.62;2829820;81;21071;-82
2022/04/03 17:47:47;;;;;;;8.65;3.70;;;;;;;3.94;54.98;100278.03;2824736;82;21015;-83
2022/04/03 17:51:50;;;;;;;6.10;3.47;;;;;;;3.83;55.53;100275.95;2797369;81;21049;-82
2022/04/03 18:04:50;;;;;;;4.78;3.45;;;;;;;3.62;56.43;100286.70;2814351;83;20126;-83
2022/04/03 18:08:51;;;;;;;9.48;3.83;;;;;;;3.40;57.46;100290.45;2825265;82;21614;-83
2022/04/03 18:12:52;;;;;;;8.10;4.37;;;;;;;3.19;57.61;100289.80;2783280;82;21099;-83
2022/04/03 18:16:58;;;;;;;5.95;3.70;;;;;;;3.04;57.89;100294.03;2789056;83;21124;-84
2022/04/03 18:21:01;;;;;;;5.92;4.17;;;;;;;2.84;58.22;100288.47;2778118;82;21071;-84
2022/04/03 18:25:03;;;;;;;5.35;4.72;;;;;;;2.69;59.19;100296.17;2773289;83;21567;-83
2022/04/03 18:29:05;;;;;;;9.55;6.35;;;;;;;2.54;59.20;100289.90;2751292;83;21076;-84
2022/04/03 18:33:07;;;;;;;9.08;7.20;;;;;;;2.45;59.90;100298.68;2822147;81;21115;-82
2022/04/03 18:37:10;;;;;;;12.65;7.20;;;;;;;2.39;60.59;100298.05;2850045;81;21036;-87
2022/04/03 18:41:11;;;;;;;10.82;8.25;;;;;;;2.35;60.95;100293.85;2751989;84;21044;-86
2022/04/03 18:45:13;;;;;;;10.28;7.60;;;;;;;2.34;60.71;100300.03;2740439;83;21012;-89
2022/04/03 18:49:14;;;;;;;11.90;5.03;;;;;;;2.37;60.35;100295.97;2746868;84;21095;-87
2022/04/03 18:53:16;;;;;;;11.38;5.67;;;;;;;2.35;61.17;100301.73;2780535;82;21029;-85
2022/04/03 18:57:18;;;;;;;6.25;5.10;;;;;;;2.25;61.89;100301.79;2746142;83;21009;-84
2022/04/03 19:01:20;;;;;;;5.40;4.72;;;;;;;2.21;62.11;100300.23;2825502;80;21039;-84
2022/04/03 19:05:22;;;;;;;14.68;6.50;;;;;;;2.14;62.09;100296.56;2842447;80;20992;-84
2022/04/03 19:09:23;;;;;;;12.93;8.13;;;;;;;2.15;61.79;100293.49;2881757;80;21024;-82
2022/04/03 19:13:25;;;;;;;9.73;7.28;;;;;;;2.17;61.94;100300.00;2853012;81;20989;-81
2022/04/03 19:17:26;;;;;;;11.95;8.13;;;;;;;2.18;62.94;100295.14;2856783;80;21020;-81
2022/04/03 19:21:28;;;;;;;15.78;8.03;;;;;;;2.12;63.24;100295.78;2852791;80;20967;-81
2022/04/03 19:25:30;;;;;;;10.85;7.85;;;;;;;2.00;63.75;100290.65;2856425;80;21034;-80
2022/04/03 19:29:32;;;;;;;18.55;9.50;;;;;;;1.91;63.92;100292.40;2852709;80;21558;-83